Ocean Jupiter — CFK3107 — position and weather

sailwx.info

Track history (hours):
 
Tides and Currents Weather Stations Pressure Air Temp Water Temp Dewpoint Dewpoint Depression Visibility Wind Speed Wind Dir Waves Ship Positions

Ocean Jupiter

Last reported at 2018-Feb-24 16:20 UTC. Time now 2018-Feb-25 00:03 UTC.
Position N 45°56' W 073°13'.

Length 24 m; draft 3.2 m.

Type: Tug. MMSI: 316008255.

Date/timePositionNaut miles runAvg speedWind from/ knotsBaromVisibWave heightAir tempDewpointWater temp
2018-Feb-24 16:20N 45°56' W 073°13'411.0
2018-Feb-24 16:00N 45°53' W 073°15'3 7.0
2018-Feb-24 15:30N 45°50' W 073°17'0 0.0
2018-Feb-24 15:00N 45°50' W 073°17'1 2.1
2018-Feb-24 14:30N 45°51' W 073°16'5 9.0
2018-Feb-24 14:00N 45°55' W 073°13'4 8.8
2018-Feb-24 13:30N 45°59' W 073°11'2 0.1
2018-Feb-23 17:44N 45°57' W 073°12'312.6
2018-Feb-23 17:30N 45°54' W 073°13'510.6
2018-Feb-23 17:00N 45°50' W 073°17'0 0.1
2018-Feb-23 16:30N 45°50' W 073°17'0 0.0
2018-Feb-23 16:00N 45°50' W 073°17'3 6.1
2018-Feb-23 15:30N 45°53' W 073°15'4 8.5
2018-Feb-23 15:00N 45°57' W 073°13'  
2018-Feb-19 19:53N 45°54' W 073°13'512.1
2018-Feb-19 19:30N 45°51' W 073°17'1 1.4
2018-Feb-19 19:00N 45°50' W 073°17'4 7.7
2018-Feb-19 18:30N 45°53' W 073°14'4 0.1
2018-Feb-18 10:01N 45°57' W 073°13'112.7
2018-Feb-18 09:57N 45°56' W 073°13'512.3
2018-Feb-18 09:30N 45°51' W 073°16'2 3.0
2018-Feb-18 09:00N 45°50' W 073°17'0 0.1
2018-Feb-18 08:30N 45°50' W 073°17'0 0.0
2018-Feb-18 08:00N 45°50' W 073°17'0 0.3
2018-Feb-18 07:30N 45°50' W 073°17'3 6.8
2018-Feb-18 07:00N 45°53' W 073°15'4 7.1
2018-Feb-18 06:30N 45°56' W 073°13'  
Track history (hours):
 
Tides and Currents Weather Stations Pressure Air Temp Water Temp Dewpoint Dewpoint Depression Visibility Wind Speed Wind Dir Waves Ship Positions

Ocean Jupiter

Last reported at 2018-Feb-24 16:20 UTC. Time now 2018-Feb-25 00:03 UTC.
Position N 45°56' W 073°13'.

Length 24 m; draft 3.2 m.

Type: Tug. MMSI: 316008255.

Date/timePositionNaut miles runAvg speedWind from/ knotsBaromVisibWave heightAir tempDewpointWater temp
2018-Feb-24 16:20N 45°56' W 073°13'411.0
2018-Feb-24 16:00N 45°53' W 073°15'3 7.0
2018-Feb-24 15:30N 45°50' W 073°17'0 0.0
2018-Feb-24 15:00N 45°50' W 073°17'1 2.1
2018-Feb-24 14:30N 45°51' W 073°16'5 9.0
2018-Feb-24 14:00N 45°55' W 073°13'4 8.8
2018-Feb-24 13:30N 45°59' W 073°11'2 0.1
2018-Feb-23 17:44N 45°57' W 073°12'312.6
2018-Feb-23 17:30N 45°54' W 073°13'510.6
2018-Feb-23 17:00N 45°50' W 073°17'0 0.1
2018-Feb-23 16:30N 45°50' W 073°17'0 0.0
2018-Feb-23 16:00N 45°50' W 073°17'3 6.1
2018-Feb-23 15:30N 45°53' W 073°15'4 8.5
2018-Feb-23 15:00N 45°57' W 073°13'  
2018-Feb-19 19:53N 45°54' W 073°13'512.1
2018-Feb-19 19:30N 45°51' W 073°17'1 1.4
2018-Feb-19 19:00N 45°50' W 073°17'4 7.7
2018-Feb-19 18:30N 45°53' W 073°14'4 0.1
2018-Feb-18 10:01N 45°57' W 073°13'112.7
2018-Feb-18 09:57N 45°56' W 073°13'512.3
2018-Feb-18 09:30N 45°51' W 073°16'2 3.0
2018-Feb-18 09:00N 45°50' W 073°17'0 0.1
2018-Feb-18 08:30N 45°50' W 073°17'0 0.0
2018-Feb-18 08:00N 45°50' W 073°17'0 0.3
2018-Feb-18 07:30N 45°50' W 073°17'3 6.8
2018-Feb-18 07:00N 45°53' W 073°15'4 7.1
2018-Feb-18 06:30N 45°56' W 073°13'  

Dump ship's entire track history